This is the latest recevied weather packets stored in our database for station/object W8AN. If no packets are shown the sender has not sent any weather packets the latest 10 day(s).
| Time | Temp. | Humidity | Pressure | Rain* | Wind** | Luminosity | Snow |
|---|---|---|---|---|---|---|---|
| 1777588854 | 13.33° C | 39% | 4269 hPa | 0 mm | - | 208 W/m² | - |
| 1777588550 | 12.78° C | 42% | 4269 hPa | 0 mm | - | 155 W/m² | - |
| 1777588246 | 13.33° C | 44% | 4269.2 hPa | 0 mm | - | 76 W/m² | - |
| 1777587941 | 13.33° C | 41% | 4268.7 hPa | 0 mm | - | 221 W/m² | - |
| 1777587638 | 13.33° C | 41% | 4268.9 hPa | 0 mm | - | 248 W/m² | - |
| 1777587338 | 13.33° C | 43% | 4268.9 hPa | 0 mm | - | 269 W/m² | - |
| 1777587033 | 13.33° C | 42% | 4268.7 hPa | 0 mm | - | 238 W/m² | - |
| 1777586729 | 13.33° C | 42% | 4268.8 hPa | 0 mm | - | 311 W/m² | - |
| 1777586426 | 12.78° C | 46% | 4268.9 hPa | 0 mm | - | 335 W/m² | - |
| 1777586125 | 12.78° C | 47% | 4268.9 hPa | 0 mm | - | 353 W/m² | - |
| 1777585824 | 12.78° C | 46% | 4268.9 hPa | 0 mm | - | 164 W/m² | - |
| 1777585523 | 13.33° C | 44% | 4268.9 hPa | 0 mm | - | 307 W/m² | - |
| 1777585219 | 12.22° C | 47% | 4268.9 hPa | 0 mm | - | 272 W/m² | - |
| 1777584915 | 12.78° C | 46% | 4268.6 hPa | 0 mm | - | 92 W/m² | - |
| 1777584612 | 13.33° C | 46% | 4268.7 hPa | 0 mm | - | 234 W/m² | - |
| 1777584309 | 13.33° C | 43% | 4268.9 hPa | 0 mm | - | 424 W/m² | - |
| 1777584004 | 13.89° C | 41% | 4268.8 hPa | 0 mm | - | 448 W/m² | - |
| 1777583699 | 12.78° C | 46% | 4268.7 hPa | 0 mm | - | 159 W/m² | - |
| 1777583399 | 12.78° C | 43% | 4268.5 hPa | 0 mm | - | 121 W/m² | - |
| 1777583098 | 13.33° C | 45% | 4268.7 hPa | 0 mm | - | 117 W/m² | - |
| 1777582794 | 13.33° C | 46% | 4268.5 hPa | 0 mm | - | 504 W/m² | - |
| 1777582490 | 13.33° C | 43% | 4268.8 hPa | 0 mm | - | 541 W/m² | - |
| 1777582185 | 12.78° C | 45% | 4268.9 hPa | 0 mm | - | 511 W/m² | - |
| 1777581883 | 13.89° C | 44% | 4268.8 hPa | 0 mm | - | 530 W/m² | - |
| 1777581578 | 12.22° C | 47% | 4269 hPa | 0 mm | - | 592 W/m² | - |
* Rain latest hour (hover to see other rain measurements)
** Current wind speed in m/s (hover to see current wind gust speed)